sensor_id;sensor_type;location;lat;lon;timestamp;P1;durP1;ratioP1;P2;durP2;ratioP2
68509;SDS011;55512;50.102;19.958;2023-02-15T00:01:57;16.60;;;8.70;;
68509;SDS011;55512;50.102;19.958;2023-02-15T00:04:24;16.50;;;8.90;;
68509;SDS011;55512;50.102;19.958;2023-02-15T00:07:09;18.20;;;9.10;;
68509;SDS011;55512;50.102;19.958;2023-02-15T00:09:35;14.60;;;8.20;;
68509;SDS011;55512;50.102;19.958;2023-02-15T00:12:00;17.10;;;8.90;;
68509;SDS011;55512;50.102;19.958;2023-02-15T00:14:25;10.80;;;4.80;;
68509;SDS011;55512;50.102;19.958;2023-02-15T00:16:52;17.30;;;9.80;;
68509;SDS011;55512;50.102;19.958;2023-02-15T00:19:20;15.10;;;6.80;;
68509;SDS011;55512;50.102;19.958;2023-02-15T00:21:47;18.40;;;8.40;;
68509;SDS011;55512;50.102;19.958;2023-02-15T00:24:15;17.90;;;9.90;;
68509;SDS011;55512;50.102;19.958;2023-02-15T00:26:43;18.90;;;10.30;;
68509;SDS011;55512;50.102;19.958;2023-02-15T00:29:09;19.40;;;10.20;;
68509;SDS011;55512;50.102;19.958;2023-02-15T00:31:36;21.20;;;11.60;;
68509;SDS011;55512;50.102;19.958;2023-02-15T00:34:07;17.10;;;8.90;;
68509;SDS011;55512;50.102;19.958;2023-02-15T00:36:37;12.40;;;7.30;;
68509;SDS011;55512;50.102;19.958;2023-02-15T00:39:03;18.70;;;9.40;;
68509;SDS011;55512;50.102;19.958;2023-02-15T00:41:30;16.50;;;8.50;;
68509;SDS011;55512;50.102;19.958;2023-02-15T00:43:56;16.50;;;8.90;;
68509;SDS011;55512;50.102;19.958;2023-02-15T00:46:22;17.00;;;9.30;;
68509;SDS011;55512;50.102;19.958;2023-02-15T00:48:47;18.60;;;10.30;;
68509;SDS011;55512;50.102;19.958;2023-02-15T00:51:13;19.30;;;8.70;;
68509;SDS011;55512;50.102;19.958;2023-02-15T00:53:39;17.90;;;9.00;;
68509;SDS011;55512;50.102;19.958;2023-02-15T00:56:04;16.80;;;9.30;;
68509;SDS011;55512;50.102;19.958;2023-02-15T00:58:30;18.20;;;9.70;;
68509;SDS011;55512;50.102;19.958;2023-02-15T01:01:03;17.80;;;9.40;;
68509;SDS011;55512;50.102;19.958;2023-02-15T01:03:30;19.70;;;9.20;;
68509;SDS011;55512;50.102;19.958;2023-02-15T01:05:56;17.10;;;8.80;;
68509;SDS011;55512;50.102;19.958;2023-02-15T01:08:21;17.80;;;8.90;;
68509;SDS011;55512;50.102;19.958;2023-02-15T01:10:47;14.00;;;7.20;;
68509;SDS011;55512;50.102;19.958;2023-02-15T01:13:15;13.90;;;7.20;;
68509;SDS011;55512;50.102;19.958;2023-02-15T01:15:42;13.50;;;6.30;;
68509;SDS011;55512;50.102;19.958;2023-02-15T01:18:08;17.20;;;8.50;;
68509;SDS011;55512;50.102;19.958;2023-02-15T01:20:37;16.00;;;8.10;;
68509;SDS011;55512;50.102;19.958;2023-02-15T01:23:06;18.20;;;8.20;;
68509;SDS011;55512;50.102;19.958;2023-02-15T01:25:34;16.10;;;8.40;;
68509;SDS011;55512;50.102;19.958;2023-02-15T01:28:00;18.30;;;10.10;;
68509;SDS011;55512;50.102;19.958;2023-02-15T01:30:27;19.30;;;10.10;;
68509;SDS011;55512;50.102;19.958;2023-02-15T01:32:52;19.30;;;10.60;;
68509;SDS011;55512;50.102;19.958;2023-02-15T01:35:18;22.00;;;10.90;;
68509;SDS011;55512;50.102;19.958;2023-02-15T01:37:44;22.50;;;11.00;;
68509;SDS011;55512;50.102;19.958;2023-02-15T01:40:15;21.50;;;11.10;;
68509;SDS011;55512;50.102;19.958;2023-02-15T01:42:42;23.00;;;12.00;;
68509;SDS011;55512;50.102;19.958;2023-02-15T01:45:24;22.20;;;11.10;;
68509;SDS011;55512;50.102;19.958;2023-02-15T01:50:53;20.60;;;10.80;;
68509;SDS011;55512;50.102;19.958;2023-02-15T01:53:37;23.10;;;11.30;;
68509;SDS011;55512;50.102;19.958;2023-02-15T01:56:12;23.20;;;11.40;;
68509;SDS011;55512;50.102;19.958;2023-02-15T01:58:41;25.00;;;11.70;;
68509;SDS011;55512;50.102;19.958;2023-02-15T02:01:08;22.30;;;11.40;;
68509;SDS011;55512;50.102;19.958;2023-02-15T02:04:04;19.70;;;10.50;;
68509;SDS011;55512;50.102;19.958;2023-02-15T02:06:32;22.50;;;11.30;;
68509;SDS011;55512;50.102;19.958;2023-02-15T02:08:58;18.40;;;9.20;;
68509;SDS011;55512;50.102;19.958;2023-02-15T02:11:25;13.10;;;6.50;;
68509;SDS011;55512;50.102;19.958;2023-02-15T02:13:51;16.70;;;8.10;;
68509;SDS011;55512;50.102;19.958;2023-02-15T02:22:13;12.20;;;6.00;;
68509;SDS011;55512;50.102;19.958;2023-02-15T02:28:51;21.50;;;10.00;;
68509;SDS011;55512;50.102;19.958;2023-02-15T02:32:07;19.00;;;9.60;;
68509;SDS011;55512;50.102;19.958;2023-02-15T02:38:36;20.30;;;11.20;;
68509;SDS011;55512;50.102;19.958;2023-02-15T02:43:54;22.50;;;12.00;;
68509;SDS011;55512;50.102;19.958;2023-02-15T02:46:50;23.50;;;11.60;;
68509;SDS011;55512;50.102;19.958;2023-02-15T02:49:30;19.30;;;9.30;;
68509;SDS011;55512;50.102;19.958;2023-02-15T02:51:58;17.90;;;9.00;;
68509;SDS011;55512;50.102;19.958;2023-02-15T02:54:25;19.10;;;9.30;;
68509;SDS011;55512;50.102;19.958;2023-02-15T02:56:52;20.20;;;10.50;;
68509;SDS011;55512;50.102;19.958;2023-02-15T02:59:30;22.70;;;11.90;;
68509;SDS011;55512;50.102;19.958;2023-02-15T03:02:07;20.20;;;11.00;;
68509;SDS011;55512;50.102;19.958;2023-02-15T03:04:41;21.90;;;11.70;;
68509;SDS011;55512;50.102;19.958;2023-02-15T03:07:19;22.50;;;11.80;;
68509;SDS011;55512;50.102;19.958;2023-02-15T03:09:50;22.80;;;12.00;;
68509;SDS011;55512;50.102;19.958;2023-02-15T03:12:23;21.40;;;11.10;;
68509;SDS011;55512;50.102;19.958;2023-02-15T03:15:02;23.10;;;11.70;;
68509;SDS011;55512;50.102;19.958;2023-02-15T03:17:34;22.60;;;10.50;;
68509;SDS011;55512;50.102;19.958;2023-02-15T03:20:07;22.70;;;10.90;;
68509;SDS011;55512;50.102;19.958;2023-02-15T03:22:44;25.90;;;13.10;;
68509;SDS011;55512;50.102;19.958;2023-02-15T03:25:22;25.70;;;13.30;;
68509;SDS011;55512;50.102;19.958;2023-02-15T03:27:55;24.70;;;11.80;;
68509;SDS011;55512;50.102;19.958;2023-02-15T03:30:27;23.20;;;12.30;;
68509;SDS011;55512;50.102;19.958;2023-02-15T03:32:56;25.10;;;12.80;;
68509;SDS011;55512;50.102;19.958;2023-02-15T03:35:25;27.20;;;13.80;;
68509;SDS011;55512;50.102;19.958;2023-02-15T03:38:00;23.90;;;12.30;;
68509;SDS011;55512;50.102;19.958;2023-02-15T03:40:38;21.90;;;11.50;;
68509;SDS011;55512;50.102;19.958;2023-02-15T03:45:56;27.70;;;12.20;;
68509;SDS011;55512;50.102;19.958;2023-02-15T03:48:40;24.10;;;11.80;;
68509;SDS011;55512;50.102;19.958;2023-02-15T03:51:15;22.00;;;11.60;;
68509;SDS011;55512;50.102;19.958;2023-02-15T03:54:07;26.50;;;13.30;;
68509;SDS011;55512;50.102;19.958;2023-02-15T03:56:39;27.30;;;13.30;;
68509;SDS011;55512;50.102;19.958;2023-02-15T03:59:07;27.70;;;12.80;;
68509;SDS011;55512;50.102;19.958;2023-02-15T04:02:08;28.00;;;13.50;;
68509;SDS011;55512;50.102;19.958;2023-02-15T04:04:47;23.80;;;12.10;;
68509;SDS011;55512;50.102;19.958;2023-02-15T04:07:13;28.40;;;12.70;;
68509;SDS011;55512;50.102;19.958;2023-02-15T04:09:39;25.50;;;12.80;;
68509;SDS011;55512;50.102;19.958;2023-02-15T04:12:23;28.30;;;14.00;;
68509;SDS011;55512;50.102;19.958;2023-02-15T04:14:49;27.00;;;13.30;;
68509;SDS011;55512;50.102;19.958;2023-02-15T04:17:33;27.30;;;13.70;;
68509;SDS011;55512;50.102;19.958;2023-02-15T04:19:58;29.60;;;14.40;;
68509;SDS011;55512;50.102;19.958;2023-02-15T04:22:42;29.40;;;13.30;;
68509;SDS011;55512;50.102;19.958;2023-02-15T04:25:27;30.80;;;14.40;;
68509;SDS011;55512;50.102;19.958;2023-02-15T04:27:53;30.00;;;14.90;;
68509;SDS011;55512;50.102;19.958;2023-02-15T04:30:23;30.80;;;13.50;;
68509;SDS011;55512;50.102;19.958;2023-02-15T04:32:50;33.30;;;16.40;;
68509;SDS011;55512;50.102;19.958;2023-02-15T04:35:16;29.00;;;15.20;;
68509;SDS011;55512;50.102;19.958;2023-02-15T04:37:43;32.10;;;15.60;;
68509;SDS011;55512;50.102;19.958;2023-02-15T04:40:11;32.10;;;16.10;;
68509;SDS011;55512;50.102;19.958;2023-02-15T04:42:38;29.60;;;14.70;;
68509;SDS011;55512;50.102;19.958;2023-02-15T04:45:03;33.00;;;15.40;;
68509;SDS011;55512;50.102;19.958;2023-02-15T04:47:29;27.80;;;12.80;;
68509;SDS011;55512;50.102;19.958;2023-02-15T04:49:55;29.30;;;13.50;;
68509;SDS011;55512;50.102;19.958;2023-02-15T04:52:21;27.50;;;13.60;;
68509;SDS011;55512;50.102;19.958;2023-02-15T04:54:47;26.20;;;13.50;;
68509;SDS011;55512;50.102;19.958;2023-02-15T04:57:12;24.70;;;13.00;;
68509;SDS011;55512;50.102;19.958;2023-02-15T04:59:38;25.50;;;12.80;;
68509;SDS011;55512;50.102;19.958;2023-02-15T05:02:04;24.90;;;13.50;;
68509;SDS011;55512;50.102;19.958;2023-02-15T05:04:29;23.00;;;12.10;;
68509;SDS011;55512;50.102;19.958;2023-02-15T05:06:55;23.00;;;13.50;;
68509;SDS011;55512;50.102;19.958;2023-02-15T05:09:20;22.60;;;11.70;;
68509;SDS011;55512;50.102;19.958;2023-02-15T05:11:46;22.80;;;12.40;;
68509;SDS011;55512;50.102;19.958;2023-02-15T05:14:11;24.40;;;12.30;;
68509;SDS011;55512;50.102;19.958;2023-02-15T05:16:37;22.60;;;12.10;;
68509;SDS011;55512;50.102;19.958;2023-02-15T05:19:03;19.70;;;10.80;;
68509;SDS011;55512;50.102;19.958;2023-02-15T05:21:28;25.60;;;13.10;;
68509;SDS011;55512;50.102;19.958;2023-02-15T05:23:54;22.60;;;11.50;;
68509;SDS011;55512;50.102;19.958;2023-02-15T05:26:22;22.50;;;11.70;;
68509;SDS011;55512;50.102;19.958;2023-02-15T05:29:08;22.10;;;11.70;;
68509;SDS011;55512;50.102;19.958;2023-02-15T05:31:34;24.00;;;12.30;;
68509;SDS011;55512;50.102;19.958;2023-02-15T05:34:02;24.90;;;12.80;;
68509;SDS011;55512;50.102;19.958;2023-02-15T05:36:28;23.70;;;12.60;;
68509;SDS011;55512;50.102;19.958;2023-02-15T05:38:54;24.10;;;12.80;;
68509;SDS011;55512;50.102;19.958;2023-02-15T05:41:20;27.50;;;13.80;;
68509;SDS011;55512;50.102;19.958;2023-02-15T05:43:46;25.00;;;12.50;;
68509;SDS011;55512;50.102;19.958;2023-02-15T05:46:12;25.40;;;11.50;;
68509;SDS011;55512;50.102;19.958;2023-02-15T05:48:38;25.60;;;12.40;;
68509;SDS011;55512;50.102;19.958;2023-02-15T05:51:09;22.20;;;11.40;;
68509;SDS011;55512;50.102;19.958;2023-02-15T05:53:39;27.10;;;12.90;;
68509;SDS011;55512;50.102;19.958;2023-02-15T05:56:07;27.30;;;12.90;;
68509;SDS011;55512;50.102;19.958;2023-02-15T05:58:37;25.10;;;12.90;;
68509;SDS011;55512;50.102;19.958;2023-02-15T06:01:22;22.90;;;12.80;;
68509;SDS011;55512;50.102;19.958;2023-02-15T06:03:48;23.10;;;12.50;;
68509;SDS011;55512;50.102;19.958;2023-02-15T06:06:14;27.10;;;12.90;;
68509;SDS011;55512;50.102;19.958;2023-02-15T06:08:40;24.90;;;12.20;;
68509;SDS011;55512;50.102;19.958;2023-02-15T06:11:06;26.70;;;13.30;;
68509;SDS011;55512;50.102;19.958;2023-02-15T06:13:32;28.60;;;14.10;;
68509;SDS011;55512;50.102;19.958;2023-02-15T06:15:58;28.10;;;14.40;;
68509;SDS011;55512;50.102;19.958;2023-02-15T06:18:24;29.60;;;13.90;;
68509;SDS011;55512;50.102;19.958;2023-02-15T06:20:50;29.70;;;14.60;;
68509;SDS011;55512;50.102;19.958;2023-02-15T06:23:15;31.60;;;15.40;;
68509;SDS011;55512;50.102;19.958;2023-02-15T06:25:41;30.90;;;15.30;;
68509;SDS011;55512;50.102;19.958;2023-02-15T06:28:07;32.10;;;16.30;;
68509;SDS011;55512;50.102;19.958;2023-02-15T06:30:32;29.40;;;13.80;;
68509;SDS011;55512;50.102;19.958;2023-02-15T06:32:58;29.10;;;14.20;;
68509;SDS011;55512;50.102;19.958;2023-02-15T06:35:23;27.90;;;15.60;;
68509;SDS011;55512;50.102;19.958;2023-02-15T06:37:49;29.30;;;13.60;;
68509;SDS011;55512;50.102;19.958;2023-02-15T06:40:15;27.90;;;13.60;;
68509;SDS011;55512;50.102;19.958;2023-02-15T06:42:41;29.20;;;13.50;;
68509;SDS011;55512;50.102;19.958;2023-02-15T06:45:08;28.00;;;14.80;;
68509;SDS011;55512;50.102;19.958;2023-02-15T06:47:34;26.30;;;13.50;;
68509;SDS011;55512;50.102;19.958;2023-02-15T06:50:00;27.40;;;12.80;;
68509;SDS011;55512;50.102;19.958;2023-02-15T06:52:25;26.80;;;14.10;;
68509;SDS011;55512;50.102;19.958;2023-02-15T06:54:51;31.40;;;14.40;;
68509;SDS011;55512;50.102;19.958;2023-02-15T06:57:16;28.30;;;13.40;;
68509;SDS011;55512;50.102;19.958;2023-02-15T06:59:49;24.70;;;12.40;;
68509;SDS011;55512;50.102;19.958;2023-02-15T07:02:15;25.90;;;13.10;;
68509;SDS011;55512;50.102;19.958;2023-02-15T07:04:41;27.70;;;12.50;;
68509;SDS011;55512;50.102;19.958;2023-02-15T07:07:08;28.20;;;12.30;;
68509;SDS011;55512;50.102;19.958;2023-02-15T07:09:35;28.80;;;13.10;;
68509;SDS011;55512;50.102;19.958;2023-02-15T07:12:01;25.10;;;13.40;;
68509;SDS011;55512;50.102;19.958;2023-02-15T07:14:46;24.70;;;12.90;;
68509;SDS011;55512;50.102;19.958;2023-02-15T07:17:11;29.00;;;14.90;;
68509;SDS011;55512;50.102;19.958;2023-02-15T07:19:37;32.00;;;14.90;;
68509;SDS011;55512;50.102;19.958;2023-02-15T07:22:02;29.90;;;15.00;;
68509;SDS011;55512;50.102;19.958;2023-02-15T07:24:30;30.70;;;14.40;;
68509;SDS011;55512;50.102;19.958;2023-02-15T07:26:56;33.00;;;15.40;;
68509;SDS011;55512;50.102;19.958;2023-02-15T07:29:22;27.60;;;14.60;;
68509;SDS011;55512;50.102;19.958;2023-02-15T07:31:48;27.60;;;13.60;;
68509;SDS011;55512;50.102;19.958;2023-02-15T07:34:13;27.70;;;14.40;;
68509;SDS011;55512;50.102;19.958;2023-02-15T07:36:39;31.10;;;14.40;;
68509;SDS011;55512;50.102;19.958;2023-02-15T07:39:04;29.70;;;15.60;;
68509;SDS011;55512;50.102;19.958;2023-02-15T07:41:30;32.10;;;15.80;;
68509;SDS011;55512;50.102;19.958;2023-02-15T07:43:55;28.60;;;15.90;;
68509;SDS011;55512;50.102;19.958;2023-02-15T07:46:21;32.80;;;15.30;;
68509;SDS011;55512;50.102;19.958;2023-02-15T07:48:47;33.10;;;15.70;;
68509;SDS011;55512;50.102;19.958;2023-02-15T07:51:13;27.10;;;14.10;;
68509;SDS011;55512;50.102;19.958;2023-02-15T07:53:40;29.90;;;15.70;;
68509;SDS011;55512;50.102;19.958;2023-02-15T07:56:09;31.90;;;15.10;;
68509;SDS011;55512;50.102;19.958;2023-02-15T07:58:36;32.50;;;16.80;;
68509;SDS011;55512;50.102;19.958;2023-02-15T08:01:19;30.00;;;14.90;;
68509;SDS011;55512;50.102;19.958;2023-02-15T08:03:53;30.50;;;15.50;;
68509;SDS011;55512;50.102;19.958;2023-02-15T08:06:23;31.70;;;15.40;;
68509;SDS011;55512;50.102;19.958;2023-02-15T08:08:51;31.20;;;15.20;;
68509;SDS011;55512;50.102;19.958;2023-02-15T08:11:20;29.00;;;13.90;;
68509;SDS011;55512;50.102;19.958;2023-02-15T08:13:53;32.00;;;14.10;;
68509;SDS011;55512;50.102;19.958;2023-02-15T08:16:28;29.30;;;14.90;;
68509;SDS011;55512;50.102;19.958;2023-02-15T08:19:01;31.20;;;16.20;;
68509;SDS011;55512;50.102;19.958;2023-02-15T08:21:30;33.00;;;16.00;;
68509;SDS011;55512;50.102;19.958;2023-02-15T08:23:56;32.90;;;15.20;;
68509;SDS011;55512;50.102;19.958;2023-02-15T08:26:24;30.30;;;14.80;;
68509;SDS011;55512;50.102;19.958;2023-02-15T08:28:51;34.60;;;17.50;;
68509;SDS011;55512;50.102;19.958;2023-02-15T08:31:17;36.50;;;16.50;;
68509;SDS011;55512;50.102;19.958;2023-02-15T08:33:44;35.80;;;14.90;;
68509;SDS011;55512;50.102;19.958;2023-02-15T08:36:13;33.00;;;16.50;;
68509;SDS011;55512;50.102;19.958;2023-02-15T08:38:44;32.50;;;16.10;;
68509;SDS011;55512;50.102;19.958;2023-02-15T08:43:42;29.70;;;13.50;;
68509;SDS011;55512;50.102;19.958;2023-02-15T08:46:11;31.30;;;15.80;;
68509;SDS011;55512;50.102;19.958;2023-02-15T08:48:37;29.90;;;15.50;;
68509;SDS011;55512;50.102;19.958;2023-02-15T08:51:14;28.30;;;15.10;;
68509;SDS011;55512;50.102;19.958;2023-02-15T08:53:44;28.20;;;14.10;;
68509;SDS011;55512;50.102;19.958;2023-02-15T08:56:14;27.00;;;14.70;;
68509;SDS011;55512;50.102;19.958;2023-02-15T08:58:41;28.60;;;14.00;;
68509;SDS011;55512;50.102;19.958;2023-02-15T09:01:13;31.40;;;15.50;;
68509;SDS011;55512;50.102;19.958;2023-02-15T09:03:46;26.30;;;12.20;;
68509;SDS011;55512;50.102;19.958;2023-02-15T09:06:16;25.10;;;12.80;;
68509;SDS011;55512;50.102;19.958;2023-02-15T09:08:42;23.40;;;11.00;;
68509;SDS011;55512;50.102;19.958;2023-02-15T09:11:13;23.00;;;12.10;;
68509;SDS011;55512;50.102;19.958;2023-02-15T09:13:49;25.70;;;13.80;;
68509;SDS011;55512;50.102;19.958;2023-02-15T09:16:17;26.50;;;11.30;;
68509;SDS011;55512;50.102;19.958;2023-02-15T09:18:43;30.70;;;14.50;;
68509;SDS011;55512;50.102;19.958;2023-02-15T09:21:12;23.10;;;12.70;;
68509;SDS011;55512;50.102;19.958;2023-02-15T09:23:40;28.70;;;15.60;;
68509;SDS011;55512;50.102;19.958;2023-02-15T09:26:20;26.50;;;14.60;;
68509;SDS011;55512;50.102;19.958;2023-02-15T09:28:54;28.50;;;14.40;;
68509;SDS011;55512;50.102;19.958;2023-02-15T09:31:24;26.80;;;13.70;;
68509;SDS011;55512;50.102;19.958;2023-02-15T09:33:52;27.10;;;14.20;;
68509;SDS011;55512;50.102;19.958;2023-02-15T09:38:50;31.50;;;15.20;;
68509;SDS011;55512;50.102;19.958;2023-02-15T09:50:24;31.90;;;15.50;;
68509;SDS011;55512;50.102;19.958;2023-02-15T09:56:14;27.60;;;14.40;;
68509;SDS011;55512;50.102;19.958;2023-02-15T10:02:31;27.90;;;14.30;;
68509;SDS011;55512;50.102;19.958;2023-02-15T10:26:47;24.60;;;12.80;;
68509;SDS011;55512;50.102;19.958;2023-02-15T10:29:34;28.30;;;13.70;;
68509;SDS011;55512;50.102;19.958;2023-02-15T10:32:20;27.60;;;13.60;;
68509;SDS011;55512;50.102;19.958;2023-02-15T10:37:52;27.60;;;13.00;;
68509;SDS011;55512;50.102;19.958;2023-02-15T10:40:51;20.90;;;10.90;;
68509;SDS011;55512;50.102;19.958;2023-02-15T10:47:02;31.70;;;13.60;;
68509;SDS011;55512;50.102;19.958;2023-02-15T10:50:15;26.60;;;14.20;;
68509;SDS011;55512;50.102;19.958;2023-02-15T10:56:23;28.40;;;13.40;;
68509;SDS011;55512;50.102;19.958;2023-02-15T11:01:55;25.60;;;12.30;;
68509;SDS011;55512;50.102;19.958;2023-02-15T11:07:32;31.10;;;14.60;;
68509;SDS011;55512;50.102;19.958;2023-02-15T11:10:38;30.00;;;14.00;;
68509;SDS011;55512;50.102;19.958;2023-02-15T11:13:09;22.60;;;11.90;;
68509;SDS011;55512;50.102;19.958;2023-02-15T11:15:47;30.00;;;14.40;;
68509;SDS011;55512;50.102;19.958;2023-02-15T11:18:32;27.20;;;14.80;;
68509;SDS011;55512;50.102;19.958;2023-02-15T11:23:37;28.60;;;14.50;;
68509;SDS011;55512;50.102;19.958;2023-02-15T11:26:34;17.20;;;7.90;;
68509;SDS011;55512;50.102;19.958;2023-02-15T11:29:13;29.90;;;14.90;;
68509;SDS011;55512;50.102;19.958;2023-02-15T11:31:45;28.10;;;13.80;;
68509;SDS011;55512;50.102;19.958;2023-02-15T11:34:26;28.80;;;15.10;;
68509;SDS011;55512;50.102;19.958;2023-02-15T11:37:01;25.20;;;11.30;;
68509;SDS011;55512;50.102;19.958;2023-02-15T11:39:34;23.80;;;11.90;;
68509;SDS011;55512;50.102;19.958;2023-02-15T11:42:23;30.10;;;15.00;;
68509;SDS011;55512;50.102;19.958;2023-02-15T11:47:41;27.50;;;13.70;;
68509;SDS011;55512;50.102;19.958;2023-02-15T11:50:13;31.00;;;15.00;;
68509;SDS011;55512;50.102;19.958;2023-02-15T11:52:41;31.20;;;15.50;;
68509;SDS011;55512;50.102;19.958;2023-02-15T11:55:13;32.00;;;17.10;;
68509;SDS011;55512;50.102;19.958;2023-02-15T11:57:50;33.00;;;16.00;;
68509;SDS011;55512;50.102;19.958;2023-02-15T12:00:34;26.70;;;13.00;;
68509;SDS011;55512;50.102;19.958;2023-02-15T12:03:10;26.40;;;13.90;;
68509;SDS011;55512;50.102;19.958;2023-02-15T12:06:15;28.30;;;13.90;;
68509;SDS011;55512;50.102;19.958;2023-02-15T12:08:54;21.20;;;10.60;;
68509;SDS011;55512;50.102;19.958;2023-02-15T12:11:38;26.20;;;13.50;;
68509;SDS011;55512;50.102;19.958;2023-02-15T12:14:10;25.50;;;13.20;;
68509;SDS011;55512;50.102;19.958;2023-02-15T12:16:48;28.10;;;15.00;;
68509;SDS011;55512;50.102;19.958;2023-02-15T12:21:51;27.00;;;13.40;;
68509;SDS011;55512;50.102;19.958;2023-02-15T12:24:25;26.00;;;13.00;;
68509;SDS011;55512;50.102;19.958;2023-02-15T12:27:04;27.10;;;12.90;;
68509;SDS011;55512;50.102;19.958;2023-02-15T12:29:49;27.40;;;13.40;;
68509;SDS011;55512;50.102;19.958;2023-02-15T12:32:27;32.30;;;16.90;;
68509;SDS011;55512;50.102;19.958;2023-02-15T12:35:02;28.20;;;15.20;;
68509;SDS011;55512;50.102;19.958;2023-02-15T12:37:31;26.20;;;12.90;;
68509;SDS011;55512;50.102;19.958;2023-02-15T12:40:01;31.20;;;14.80;;
68509;SDS011;55512;50.102;19.958;2023-02-15T12:42:44;30.80;;;15.30;;
68509;SDS011;55512;50.102;19.958;2023-02-15T12:48:16;30.40;;;14.60;;
68509;SDS011;55512;50.102;19.958;2023-02-15T12:50:45;25.80;;;12.40;;
68509;SDS011;55512;50.102;19.958;2023-02-15T12:53:21;25.10;;;14.00;;
68509;SDS011;55512;50.102;19.958;2023-02-15T12:55:57;21.90;;;11.10;;
68509;SDS011;55512;50.102;19.958;2023-02-15T12:58:29;26.60;;;13.00;;
68509;SDS011;55512;50.102;19.958;2023-02-15T13:01:15;31.30;;;15.30;;
68509;SDS011;55512;50.102;19.958;2023-02-15T13:04:01;28.70;;;13.40;;
68509;SDS011;55512;50.102;19.958;2023-02-15T13:06:32;28.40;;;14.30;;
68509;SDS011;55512;50.102;19.958;2023-02-15T13:09:15;28.60;;;15.20;;
68509;SDS011;55512;50.102;19.958;2023-02-15T13:12:25;30.10;;;14.40;;
68509;SDS011;55512;50.102;19.958;2023-02-15T13:14:54;28.30;;;14.40;;
68509;SDS011;55512;50.102;19.958;2023-02-15T13:17:26;25.10;;;13.50;;
68509;SDS011;55512;50.102;19.958;2023-02-15T13:20:13;28.10;;;14.40;;
68509;SDS011;55512;50.102;19.958;2023-02-15T13:22:45;25.30;;;13.80;;
68509;SDS011;55512;50.102;19.958;2023-02-15T13:25:19;29.30;;;14.40;;
68509;SDS011;55512;50.102;19.958;2023-02-15T13:27:54;25.60;;;14.40;;
68509;SDS011;55512;50.102;19.958;2023-02-15T13:30:37;27.70;;;14.60;;
68509;SDS011;55512;50.102;19.958;2023-02-15T13:33:32;30.10;;;14.00;;
68509;SDS011;55512;50.102;19.958;2023-02-15T13:36:24;26.40;;;13.90;;
68509;SDS011;55512;50.102;19.958;2023-02-15T13:45:02;26.20;;;14.00;;
68509;SDS011;55512;50.102;19.958;2023-02-15T13:56:55;26.80;;;14.60;;
68509;SDS011;55512;50.102;19.958;2023-02-15T13:59:55;23.40;;;13.90;;
68509;SDS011;55512;50.102;19.958;2023-02-15T14:03:13;27.90;;;13.70;;
68509;SDS011;55512;50.102;19.958;2023-02-15T14:11:33;28.90;;;14.50;;
68509;SDS011;55512;50.102;19.958;2023-02-15T14:17:29;26.80;;;14.40;;
68509;SDS011;55512;50.102;19.958;2023-02-15T14:23:55;25.00;;;14.60;;
68509;SDS011;55512;50.102;19.958;2023-02-15T14:32:01;25.70;;;14.10;;
68509;SDS011;55512;50.102;19.958;2023-02-15T14:34:50;23.80;;;14.50;;
68509;SDS011;55512;50.102;19.958;2023-02-15T14:37:26;23.90;;;13.60;;
68509;SDS011;55512;50.102;19.958;2023-02-15T14:40:19;26.10;;;14.70;;
68509;SDS011;55512;50.102;19.958;2023-02-15T14:49:15;25.50;;;16.50;;
68509;SDS011;55512;50.102;19.958;2023-02-15T15:00:28;20.80;;;16.20;;
68509;SDS011;55512;50.102;19.958;2023-02-15T15:03:28;22.20;;;16.40;;
68509;SDS011;55512;50.102;19.958;2023-02-15T15:08:33;24.20;;;17.50;;
68509;SDS011;55512;50.102;19.958;2023-02-15T15:13:56;24.70;;;17.70;;
68509;SDS011;55512;50.102;19.958;2023-02-15T15:16:31;22.10;;;17.30;;
68509;SDS011;55512;50.102;19.958;2023-02-15T15:19:00;23.10;;;17.60;;
68509;SDS011;55512;50.102;19.958;2023-02-15T15:33:01;24.20;;;15.90;;
68509;SDS011;55512;50.102;19.958;2023-02-15T15:49:56;24.40;;;15.60;;
68509;SDS011;55512;50.102;19.958;2023-02-15T15:52:23;26.20;;;14.80;;
68509;SDS011;55512;50.102;19.958;2023-02-15T15:55:18;25.60;;;15.20;;
68509;SDS011;55512;50.102;19.958;2023-02-15T15:57:49;24.90;;;15.00;;
68509;SDS011;55512;50.102;19.958;2023-02-15T16:03:22;25.40;;;14.70;;
68509;SDS011;55512;50.102;19.958;2023-02-15T16:05:50;27.70;;;15.20;;
68509;SDS011;55512;50.102;19.958;2023-02-15T16:11:19;28.20;;;16.30;;
68509;SDS011;55512;50.102;19.958;2023-02-15T16:13:48;27.30;;;15.60;;
68509;SDS011;55512;50.102;19.958;2023-02-15T16:16:20;25.80;;;14.60;;
68509;SDS011;55512;50.102;19.958;2023-02-15T16:18:47;36.30;;;17.60;;
68509;SDS011;55512;50.102;19.958;2023-02-15T16:21:18;31.00;;;16.10;;
68509;SDS011;55512;50.102;19.958;2023-02-15T16:23:52;33.20;;;17.00;;
68509;SDS011;55512;50.102;19.958;2023-02-15T16:26:53;27.50;;;14.80;;
68509;SDS011;55512;50.102;19.958;2023-02-15T16:29:31;29.30;;;15.00;;
68509;SDS011;55512;50.102;19.958;2023-02-15T16:32:44;29.70;;;13.90;;
68509;SDS011;55512;50.102;19.958;2023-02-15T16:34:59;26.60;;;14.60;;
68509;SDS011;55512;50.102;19.958;2023-02-15T16:37:32;26.60;;;13.30;;
68509;SDS011;55512;50.102;19.958;2023-02-15T16:39:59;28.70;;;14.50;;
68509;SDS011;55512;50.102;19.958;2023-02-15T16:42:26;29.80;;;17.30;;
68509;SDS011;55512;50.102;19.958;2023-02-15T16:44:58;31.80;;;15.80;;
68509;SDS011;55512;50.102;19.958;2023-02-15T16:47:31;30.60;;;15.30;;
68509;SDS011;55512;50.102;19.958;2023-02-15T16:50:02;28.70;;;15.40;;
68509;SDS011;55512;50.102;19.958;2023-02-15T16:52:29;29.30;;;15.00;;
68509;SDS011;55512;50.102;19.958;2023-02-15T16:54:58;29.30;;;14.30;;
68509;SDS011;55512;50.102;19.958;2023-02-15T16:57:29;28.50;;;14.80;;
68509;SDS011;55512;50.102;19.958;2023-02-15T17:00:17;32.00;;;15.60;;
68509;SDS011;55512;50.102;19.958;2023-02-15T17:03:11;32.00;;;16.60;;
68509;SDS011;55512;50.102;19.958;2023-02-15T17:06:21;32.70;;;15.80;;
68509;SDS011;55512;50.102;19.958;2023-02-15T17:08:53;32.10;;;16.40;;
68509;SDS011;55512;50.102;19.958;2023-02-15T17:11:39;34.50;;;17.10;;
68509;SDS011;55512;50.102;19.958;2023-02-15T17:16:36;32.20;;;15.80;;
68509;SDS011;55512;50.102;19.958;2023-02-15T17:21:55;31.80;;;16.20;;
68509;SDS011;55512;50.102;19.958;2023-02-15T17:24:36;32.60;;;16.30;;
68509;SDS011;55512;50.102;19.958;2023-02-15T17:27:13;33.00;;;16.60;;
68509;SDS011;55512;50.102;19.958;2023-02-15T17:29:50;33.00;;;17.60;;
68509;SDS011;55512;50.102;19.958;2023-02-15T17:32:23;37.40;;;17.20;;
68509;SDS011;55512;50.102;19.958;2023-02-15T17:37:44;36.80;;;18.20;;
68509;SDS011;55512;50.102;19.958;2023-02-15T17:40:26;41.20;;;19.00;;
68509;SDS011;55512;50.102;19.958;2023-02-15T17:42:53;43.10;;;21.90;;
68509;SDS011;55512;50.102;19.958;2023-02-15T17:45:20;45.80;;;22.10;;
68509;SDS011;55512;50.102;19.958;2023-02-15T17:47:48;46.10;;;20.70;;
68509;SDS011;55512;50.102;19.958;2023-02-15T17:50:23;46.50;;;21.30;;